Time;durP1;ratioP1;P1;durP2;ratioP2;P2;SDS_P1;SDS_P2;PMS_P1;PMS_P2;Temp;Humidity;BMP_temperature;BMP_pressure;BME280_temperature;BME280_humidity;BME280_pressure;Samples;Min_cycle;Max_cycle;Signal;HPM_P1;HPM_P2
2021/10/08 00:01:35;;;;;;;;;;;;;;;12.31;76.61;100803.38;5112298;28;19955;-22
2021/10/08 00:04:01;;;;;;;;;;;;;;;12.25;76.98;100806.91;5112097;28;19917;-22
2021/10/08 00:06:26;;;;;;;;;;;;;;;12.33;76.79;100795.97;5112374;28;19916;-22
2021/10/08 00:08:51;;;;;;;;;;;;;;;12.57;76.25;100806.97;5111925;28;20306;-21
2021/10/08 00:11:17;;;;;;;;;;;;;;;12.91;74.79;100810.28;5112148;28;19965;-21
2021/10/08 00:13:42;;;;;;;;;;;;;;;12.91;74.36;100807.59;5112119;28;19915;-22
2021/10/08 00:16:08;;;;;;;;;;;;;;;12.92;74.58;100809.25;5111916;28;19959;-22
2021/10/08 00:18:33;;;;;;;;;;;;;;;13.19;73.41;100809.88;5111571;28;19922;-22
2021/10/08 00:20:59;;;;;;;;;;;;;;;12.83;74.10;100797.94;5111989;28;20331;-22
2021/10/08 00:23:24;;;;;;;;;;;;;;;12.70;74.55;100796.19;5111620;28;19916;-22
2021/10/08 00:25:49;;;;;;;;;;;;;;;12.79;74.55;100800.25;5111943;28;19916;-22
2021/10/08 00:28:15;;;;;;;;;;;;;;;12.55;75.64;100801.03;5111883;28;19919;-22
2021/10/08 00:30:40;;;;;;;;;;;;;;;12.57;74.45;100790.94;5111492;28;20380;-22
2021/10/08 00:33:05;;;;;;;;;;;;;;;12.53;74.91;100801.22;5111391;28;19911;-22
2021/10/08 00:35:30;;;;;;;;;;;;;;;12.76;74.40;100787.31;5111538;28;19942;-22
2021/10/08 00:37:56;;;;;;;;;;;;;;;12.65;74.70;100786.13;5111432;28;19912;-22
2021/10/08 00:40:21;;;;;;;;;;;;;;;12.44;75.33;100786.44;5093042;28;20006;-22
2021/10/08 00:42:47;;;;;;;;;;;;;;;12.50;75.34;100790.94;5111300;28;19946;-22
2021/10/08 00:45:12;;;;;;;;;;;;;;;12.12;76.77;100781.03;5093155;28;20391;-22
2021/10/08 00:47:37;;;;;;;;;;;;;;;12.05;77.48;100777.56;5111316;28;19916;-22
2021/10/08 00:50:06;;;;;;;;;;;;;;;12.09;76.16;100769.94;5111222;28;19962;-22
2021/10/08 00:52:32;;;;;;;;;;;;;;;12.02;77.32;100783.34;5111316;28;20383;-22
2021/10/08 00:54:57;;;;;;;;;;;;;;;12.23;76.18;100774.19;5110634;28;19991;-21
2021/10/08 00:57:22;;;;;;;;;;;;;;;12.24;75.94;100770.50;5110806;28;19945;-22
2021/10/08 00:59:48;;;;;;;;;;;;;;;12.24;76.60;100759.81;5110469;28;20600;-22
2021/10/08 01:02:13;;;;;;;;;;;;;;;12.18;76.19;100761.47;5111442;28;19973;-21
2021/10/08 01:04:38;;;;;;;;;;;;;;;12.11;76.76;100754.50;5092862;28;19919;-21
2021/10/08 01:07:04;;;;;;;;;;;;;;;12.28;75.81;100755.69;5111181;28;19912;-22
2021/10/08 01:09:29;;;;;;;;;;;;;;;12.12;76.98;100754.31;5111280;28;19919;-22
2021/10/08 01:11:54;;;;;;;;;;;;;;;12.06;76.94;100757.81;5110707;28;19923;-21
2021/10/08 01:14:20;;;;;;;;;;;;;;;12.06;76.77;100752.47;5111049;28;19912;-22
2021/10/08 01:16:45;;;;;;;;;;;;;;;11.93;77.64;100750.69;5110669;28;20065;-21
2021/10/08 01:19:10;;;;;;;;;;;;;;;11.98;77.23;100745.50;5111333;28;20391;-21
2021/10/08 01:21:35;;;;;;;;;;;;;;;12.04;77.40;100743.84;5110958;28;19911;-22
2021/10/08 01:24:01;;;;;;;;;;;;;;;11.88;77.45;100750.44;5110716;28;19912;-22
2021/10/08 01:26:26;;;;;;;;;;;;;;;12.22;76.66;100748.50;5110867;28;19922;-22
2021/10/08 01:28:52;;;;;;;;;;;;;;;12.04;76.54;100750.00;5092250;28;20364;-21
2021/10/08 01:31:17;;;;;;;;;;;;;;;12.19;76.84;100746.25;5110718;28;19915;-21
2021/10/08 01:33:42;;;;;;;;;;;;;;;12.42;75.45;100738.53;5110718;28;19994;-22
2021/10/08 01:36:07;;;;;;;;;;;;;;;12.26;76.07;100747.06;5110536;28;19916;-22
2021/10/08 01:38:33;;;;;;;;;;;;;;;12.06;76.17;100729.22;5110204;28;20039;-22
2021/10/08 01:40:58;;;;;;;;;;;;;;;12.12;76.68;100746.28;5110503;28;19916;-21
2021/10/08 01:43:23;;;;;;;;;;;;;;;11.98;77.14;100745.50;5110449;28;19915;-22
2021/10/08 01:45:49;;;;;;;;;;;;;;;11.94;77.04;100748.81;5110287;28;19915;-22
2021/10/08 01:48:14;;;;;;;;;;;;;;;11.99;77.22;100747.16;5110297;28;19947;-21
2021/10/08 01:50:39;;;;;;;;;;;;;;;12.02;76.90;100741.38;5110180;28;19912;-21
2021/10/08 01:53:07;;;;;;;;;;;;;;;12.13;77.47;100744.41;5110227;28;19922;-22
2021/10/08 01:55:32;;;;;;;;;;;;;;;12.03;76.95;100740.38;5110197;28;20371;-22
2021/10/08 01:57:58;;;;;;;;;;;;;;;12.03;77.82;100743.03;5110301;28;19919;-22
2021/10/08 02:00:23;;;;;;;;;;;;;;;12.04;78.19;100739.31;5110125;28;19957;-23
2021/10/08 02:02:48;;;;;;;;;;;;;;;12.01;77.69;100739.75;5109869;28;20302;-23
2021/10/08 02:05:13;;;;;;;;;;;;;;;11.97;78.45;100738.53;5110351;28;19912;-21
2021/10/08 02:07:39;;;;;;;;;;;;;;;12.18;78.37;100731.25;5110372;28;19915;-22
2021/10/08 02:10:04;;;;;;;;;;;;;;;12.22;77.94;100735.94;5109798;28;19915;-21
2021/10/08 02:12:30;;;;;;;;;;;;;;;12.04;78.55;100733.97;5110049;28;19967;-22
2021/10/08 02:14:55;;;;;;;;;;;;;;;11.85;79.24;100732.19;5109864;28;19920;-22
2021/10/08 02:17:20;;;;;;;;;;;;;;;11.82;80.12;100729.91;5109786;28;19915;-22
2021/10/08 02:19:46;;;;;;;;;;;;;;;11.77;80.71;100716.34;5109953;28;20375;-21
2021/10/08 02:22:11;;;;;;;;;;;;;;;11.71;81.14;100719.84;5109909;28;19972;-22
2021/10/08 02:24:36;;;;;;;;;;;;;;;11.64;81.50;100718.03;5109458;28;19918;-21
2021/10/08 02:27:02;;;;;;;;;;;;;;;11.69;81.25;100716.56;5109792;28;20303;-22
2021/10/08 02:29:27;;;;;;;;;;;;;;;11.68;81.09;100706.94;5109879;28;20318;-22
2021/10/08 02:31:52;;;;;;;;;;;;;;;11.65;81.28;100714.34;5109710;28;19915;-22
2021/10/08 02:34:18;;;;;;;;;;;;;;;11.63;82.00;100711.06;5109829;28;19919;-22
2021/10/08 02:36:43;;;;;;;;;;;;;;;11.70;82.08;100723.56;5109602;28;19970;-22
2021/10/08 02:39:08;;;;;;;;;;;;;;;11.73;81.46;100726.66;5109606;28;19919;-22
2021/10/08 02:41:33;;;;;;;;;;;;;;;11.85;81.57;100726.81;5091417;28;20447;-22
2021/10/08 02:43:59;;;;;;;;;;;;;;;11.95;81.44;100723.72;5109688;28;19959;-23
2021/10/08 02:46:24;;;;;;;;;;;;;;;11.83;81.38;100732.38;5109621;28;19965;-21
2021/10/08 02:48:49;;;;;;;;;;;;;;;11.97;81.57;100738.53;5091317;28;19944;-22
2021/10/08 02:51:15;;;;;;;;;;;;;;;12.11;81.07;100739.28;5109494;28;20050;-22
2021/10/08 02:53:40;;;;;;;;;;;;;;;12.08;81.27;100736.22;5109397;28;20383;-21
2021/10/08 02:56:05;;;;;;;;;;;;;;;11.77;81.97;100729.69;5109319;28;20059;-22
2021/10/08 02:58:31;;;;;;;;;;;;;;;11.50;83.69;100728.97;5109517;28;20344;-22
2021/10/08 03:00:56;;;;;;;;;;;;;;;11.47;85.01;100722.19;5109133;28;19911;-21
2021/10/08 03:03:21;;;;;;;;;;;;;;;11.37;84.87;100727.13;5109454;28;19977;-21
2021/10/08 03:05:47;;;;;;;;;;;;;;;11.44;84.33;100735.94;5109652;28;20419;-29
2021/10/08 03:08:12;;;;;;;;;;;;;;;11.35;84.81;100730.00;5109797;28;19930;-22
2021/10/08 03:10:37;;;;;;;;;;;;;;;11.32;85.15;100734.94;5109185;28;19912;-22
2021/10/08 03:13:03;;;;;;;;;;;;;;;11.27;85.31;100732.91;5109441;28;19994;-22
2021/10/08 03:15:28;;;;;;;;;;;;;;;11.38;84.45;100739.44;5109471;28;19921;-22
2021/10/08 03:17:53;;;;;;;;;;;;;;;11.41;84.30;100739.06;5109224;28;20464;-22
2021/10/08 03:20:19;;;;;;;;;;;;;;;11.36;84.74;100733.50;5109275;28;19915;-22
2021/10/08 03:22:44;;;;;;;;;;;;;;;11.31;85.07;100725.31;5111842;28;19915;-22
2021/10/08 03:25:09;;;;;;;;;;;;;;;11.36;84.74;100730.81;5094956;28;19969;-22
2021/10/08 03:27:35;;;;;;;;;;;;;;;11.48;84.79;100737.19;5113120;28;19916;-22
2021/10/08 03:30:00;;;;;;;;;;;;;;;11.62;84.03;100744.13;5112934;28;19912;-22
2021/10/08 03:32:26;;;;;;;;;;;;;;;11.60;83.26;100746.19;5112715;28;19920;-21
2021/10/08 03:34:51;;;;;;;;;;;;;;;11.79;82.58;100757.03;5112771;28;19922;-21
2021/10/08 03:37:19;;;;;;;;;;;;;;;11.85;82.26;100751.69;5112891;28;20402;-22
2021/10/08 03:39:48;;;;;;;;;;;;;;;11.87;82.35;100754.16;5112678;28;20306;-22
2021/10/08 03:42:16;;;;;;;;;;;;;;;11.83;81.91;100752.94;5112622;28;20371;-22
2021/10/08 03:44:44;;;;;;;;;;;;;;;11.71;82.21;100749.25;5112337;28;19916;-22
2021/10/08 03:47:21;;;;;;;;;;;;;;;11.71;82.58;100746.56;5112644;28;20356;-22
2021/10/08 03:49:46;;;;;;;;;;;;;;;11.57;83.34;100743.13;5112529;28;19920;-22
2021/10/08 03:52:11;;;;;;;;;;;;;;;11.65;83.20;100756.28;5112417;28;19922;-22
2021/10/08 03:54:37;;;;;;;;;;;;;;;11.59;84.04;100759.78;5112183;28;19920;-21
2021/10/08 03:57:02;;;;;;;;;;;;;;;11.53;83.44;100752.59;5112378;28;20003;-22
2021/10/08 03:59:27;;;;;;;;;;;;;;;11.53;82.97;100753.41;5112360;28;19922;-22
2021/10/08 04:01:55;;;;;;;;;;;;;;;11.37;83.90;100743.16;5112544;28;19919;-22
2021/10/08 04:04:20;;;;;;;;;;;;;;;11.30;83.91;100745.00;5112144;28;19912;-22
2021/10/08 04:06:45;;;;;;;;;;;;;;;11.25;84.31;100748.31;5112368;28;19919;-22
2021/10/08 04:09:11;;;;;;;;;;;;;;;11.04;84.32;100738.66;5112460;28;19978;-22
2021/10/08 04:11:36;;;;;;;;;;;;;;;11.12;84.28;100738.47;5112380;28;19916;-22
2021/10/08 04:14:01;;;;;;;;;;;;;;;11.17;83.64;100722.63;5112509;28;19965;-22
2021/10/08 04:16:27;;;;;;;;;;;;;;;11.16;83.05;100729.00;5094292;28;19923;-21
2021/10/08 04:18:52;;;;;;;;;;;;;;;11.20;82.56;100730.25;5111860;28;20414;-22
2021/10/08 04:21:17;;;;;;;;;;;;;;;11.22;82.11;100730.84;5112022;28;19919;-22
2021/10/08 04:23:43;;;;;;;;;;;;;;;11.44;81.51;100736.78;5111850;28;19961;-22
2021/10/08 04:26:08;;;;;;;;;;;;;;;11.22;81.23;100736.19;5111973;28;19912;-22
2021/10/08 04:28:33;;;;;;;;;;;;;;;11.10;81.92;100748.53;5111613;28;19912;-22
2021/10/08 04:30:58;;;;;;;;;;;;;;;11.12;81.62;100751.81;5111819;28;19919;-21
2021/10/08 04:33:25;;;;;;;;;;;;;;;11.02;81.20;100740.72;5111761;28;19954;-22
2021/10/08 04:35:51;;;;;;;;;;;;;;;11.07;80.83;100754.25;5111784;28;19916;-22
2021/10/08 04:38:16;;;;;;;;;;;;;;;11.05;79.87;100761.66;5111693;28;19918;-22
2021/10/08 04:40:41;;;;;;;;;;;;;;;10.93;80.05;100758.78;5111481;28;19973;-22
2021/10/08 04:43:07;;;;;;;;;;;;;;;10.98;80.82;100753.66;5111597;28;19915;-22
2021/10/08 04:45:32;;;;;;;;;;;;;;;11.18;80.51;100753.66;5111677;28;20372;-21
2021/10/08 04:47:57;;;;;;;;;;;;;;;11.27;80.78;100760.41;5111653;28;19919;-22
2021/10/08 04:50:23;;;;;;;;;;;;;;;11.22;79.20;100768.22;5111456;28;19915;-22
2021/10/08 04:52:48;;;;;;;;;;;;;;;11.13;79.13;100772.13;5111339;28;20311;-21
2021/10/08 04:55:13;;;;;;;;;;;;;;;11.13;79.26;100779.31;5111431;28;19915;-21
2021/10/08 04:57:39;;;;;;;;;;;;;;;11.15;79.03;100772.75;5111332;28;19950;-22
2021/10/08 05:00:05;;;;;;;;;;;;;;;11.21;79.46;100766.56;5111466;28;19911;-22
2021/10/08 05:02:30;;;;;;;;;;;;;;;11.01;79.36;100752.41;5111323;28;20006;-22
2021/10/08 05:04:55;;;;;;;;;;;;;;;11.18;79.57;100760.84;5110794;28;19976;-22
2021/10/08 05:07:20;;;;;;;;;;;;;;;11.19;79.38;100755.28;5111233;28;19950;-22
2021/10/08 05:09:46;;;;;;;;;;;;;;;11.03;79.65;100748.53;5111098;28;19916;-22
2021/10/08 05:12:11;;;;;;;;;;;;;;;11.09;79.42;100752.19;5111011;28;19911;-22
2021/10/08 05:14:36;;;;;;;;;;;;;;;11.05;79.31;100758.97;5110965;28;19915;-21
2021/10/08 05:17:02;;;;;;;;;;;;;;;11.12;79.09;100759.81;5111276;28;19923;-21
2021/10/08 05:19:27;;;;;;;;;;;;;;;11.05;79.66;100772.31;5111053;28;20718;-21
2021/10/08 05:21:54;;;;;;;;;;;;;;;11.16;79.92;100773.56;5110786;28;19912;-22
2021/10/08 05:24:20;;;;;;;;;;;;;;;11.13;80.45;100769.44;5110896;28;19911;-22
2021/10/08 05:26:45;;;;;;;;;;;;;;;11.07;80.85;100780.94;5110583;28;20213;-21
2021/10/08 05:29:10;;;;;;;;;;;;;;;11.11;81.05;100782.19;5110905;28;19919;-22
2021/10/08 05:31:36;;;;;;;;;;;;;;;11.08;81.45;100784.47;5110823;28;20002;-21
2021/10/08 05:34:01;;;;;;;;;;;;;;;11.08;81.27;100781.78;5092385;28;20388;-22
2021/10/08 05:36:26;;;;;;;;;;;;;;;11.00;82.18;100780.94;5110505;28;19995;-22
2021/10/08 05:38:52;;;;;;;;;;;;;;;11.07;82.35;100775.59;5110592;28;20328;-22
2021/10/08 05:41:17;;;;;;;;;;;;;;;10.97;82.58;100775.19;5110403;28;19911;-22
2021/10/08 05:43:42;;;;;;;;;;;;;;;10.92;83.51;100777.66;5110125;28;19976;-22
2021/10/08 05:46:08;;;;;;;;;;;;;;;10.91;82.77;100765.34;5110201;28;19912;-22
2021/10/08 05:48:33;;;;;;;;;;;;;;;11.03;83.23;100761.03;5110514;28;19922;-22
2021/10/08 05:50:58;;;;;;;;;;;;;;;10.94;83.63;100764.94;5110562;28;20072;-22
2021/10/08 05:53:24;;;;;;;;;;;;;;;10.92;83.57;100767.00;5110350;28;19916;-21
2021/10/08 05:55:49;;;;;;;;;;;;;;;11.14;83.08;100771.09;5110082;28;19916;-22
2021/10/08 05:58:14;;;;;;;;;;;;;;;11.16;82.62;100777.06;5110064;28;20492;-22
2021/10/08 06:00:39;;;;;;;;;;;;;;;11.18;81.67;100782.22;5109993;28;19916;-21
2021/10/08 06:03:05;;;;;;;;;;;;;;;10.98;82.73;100784.84;5110359;28;19933;-21
2021/10/08 06:05:34;;;;;;;;;;;;;;;10.99;82.84;100795.34;5109789;28;20542;-21
2021/10/08 06:07:59;;;;;;;;;;;;;;;11.08;82.75;100784.47;5110006;28;20283;-22
2021/10/08 06:10:25;;;;;;;;;;;;;;;11.06;82.39;100795.34;5110102;28;20021;-22
2021/10/08 06:12:50;;;;;;;;;;;;;;;10.93;82.66;100784.63;5109821;28;19918;-22
2021/10/08 06:15:15;;;;;;;;;;;;;;;10.97;81.79;100780.53;5110022;28;19915;-22
2021/10/08 06:17:41;;;;;;;;;;;;;;;10.98;82.12;100783.00;5109996;28;19918;-22
2021/10/08 06:20:06;;;;;;;;;;;;;;;10.94;82.90;100786.28;5110032;28;19991;-21
2021/10/08 06:22:31;;;;;;;;;;;;;;;11.21;81.17;100782.59;5109642;28;19938;-22
2021/10/08 06:24:57;;;;;;;;;;;;;;;11.00;81.84;100774.78;5109610;28;20424;-29
2021/10/08 06:27:22;;;;;;;;;;;;;;;11.13;81.81;100773.97;5110051;28;19916;-21
2021/10/08 06:29:47;;;;;;;;;;;;;;;11.12;81.22;100785.69;5109814;28;20345;-22
2021/10/08 06:32:13;;;;;;;;;;;;;;;11.35;80.62;100785.28;5109679;28;20018;-22
2021/10/08 06:34:38;;;;;;;;;;;;;;;11.25;80.44;100783.81;5109675;28;19923;-22
2021/10/08 06:37:03;;;;;;;;;;;;;;;11.37;80.10;100777.88;5109660;28;19915;-22
2021/10/08 06:39:28;;;;;;;;;;;;;;;11.41;79.47;100779.91;5109694;28;19912;-22
2021/10/08 06:41:54;;;;;;;;;;;;;;;11.51;79.63;100771.50;5109656;28;20315;-22
2021/10/08 06:44:19;;;;;;;;;;;;;;;11.50;80.20;100763.69;5109607;28;19930;-22
2021/10/08 06:46:44;;;;;;;;;;;;;;;11.59;79.08;100762.44;5109049;28;19912;-22
2021/10/08 06:49:10;;;;;;;;;;;;;;;11.34;80.30;100757.75;5109518;28;19912;-22
2021/10/08 06:51:36;;;;;;;;;;;;;;;11.21;80.48;100755.91;5109362;28;19915;-22
2021/10/08 06:54:01;;;;;;;;;;;;;;;11.29;80.72;100751.38;5106880;28;19980;-22
2021/10/08 06:56:29;;;;;;;;;;;;;;;11.42;79.60;100762.88;5071566;28;20381;-22
2021/10/08 06:58:54;;;;;;;;;;;;;;;11.58;78.86;100761.59;5092388;28;19920;-21
2021/10/08 07:01:20;;;;;;;;;;;;;;;11.64;78.74;100763.44;5092761;28;19916;-24
2021/10/08 07:03:45;;;;;;;;;;;;;;;11.60;78.38;100775.56;5093146;28;19966;-24
2021/10/08 07:06:10;;;;;;;;;;;;;;;11.64;77.89;100776.81;5093198;28;19923;-24
2021/10/08 07:08:35;;;;;;;;;;;;;;;11.57;78.71;100789.38;5092900;28;20376;-24
2021/10/08 07:11:01;;;;;;;;;;;;;;;11.42;78.47;100780.72;5092830;28;19912;-23
2021/10/08 07:13:26;;;;;;;;;;;;;;;11.58;77.96;100777.63;5092980;28;19916;-24
2021/10/08 07:15:51;;;;;;;;;;;;;;;11.53;78.40;100773.97;5092962;28;20002;-24
2021/10/08 07:18:23;;;;;;;;;;;;;;;11.60;77.87;100780.09;5092841;28;19912;-24
2021/10/08 07:20:48;;;;;;;;;;;;;;;11.61;78.39;100784.44;5092737;28;20022;-23
2021/10/08 07:23:13;;;;;;;;;;;;;;;11.62;78.19;100789.53;5092887;28;20028;-24
2021/10/08 07:25:38;;;;;;;;;;;;;;;11.70;77.24;100785.03;5108322;28;19912;-24
2021/10/08 07:28:04;;;;;;;;;;;;;;;11.83;76.82;100790.34;5093418;28;19916;-24
2021/10/08 07:30:29;;;;;;;;;;;;;;;11.70;76.57;100790.38;5092513;28;19912;-24
2021/10/08 07:32:54;;;;;;;;;;;;;;;11.81;77.15;100795.06;5092290;28;19927;-23
2021/10/08 07:35:20;;;;;;;;;;;;;;;11.88;75.70;100790.53;5092460;28;19965;-21
2021/10/08 07:37:45;;;;;;;;;;;;;;;11.85;76.28;100782.94;5092603;28;19915;-21
2021/10/08 07:40:10;;;;;;;;;;;;;;;11.86;75.84;100792.59;5092664;28;19915;-21
2021/10/08 07:42:36;;;;;;;;;;;;;;;11.84;76.19;100786.63;5092749;28;20017;-20
2021/10/08 07:45:02;;;;;;;;;;;;;;;11.89;76.76;100784.22;5092428;28;19916;-21
2021/10/08 07:47:27;;;;;;;;;;;;;;;12.08;76.00;100782.50;5092404;28;20000;-20
2021/10/08 07:49:52;;;;;;;;;;;;;;;12.17;74.80;100775.88;5092376;28;19970;-21
2021/10/08 07:52:18;;;;;;;;;;;;;;;12.11;74.66;100765.19;5092338;28;19912;-21
2021/10/08 07:54:43;;;;;;;;;;;;;;;12.04;75.28;100771.41;5092032;28;20400;-21
2021/10/08 07:57:08;;;;;;;;;;;;;;;12.11;74.53;100770.56;5092100;28;19922;-21
2021/10/08 07:59:34;;;;;;;;;;;;;;;12.42;73.07;100773.31;5092440;28;19916;-21
2021/10/08 08:01:59;;;;;;;;;;;;;;;12.35;73.59;100788.53;5092016;28;19919;-20
2021/10/08 08:04:24;;;;;;;;;;;;;;;12.30;74.09;100811.59;5092206;28;20430;-20
2021/10/08 08:06:49;;;;;;;;;;;;;;;12.28;73.55;100814.50;5091437;28;19916;-20
2021/10/08 08:09:15;;;;;;;;;;;;;;;12.28;73.27;100801.16;5091715;28;20425;-20
2021/10/08 08:11:40;;;;;;;;;;;;;;;12.23;74.01;100795.59;5092166;28;19939;-20
2021/10/08 08:14:06;;;;;;;;;;;;;;;12.20;74.06;100785.34;5092075;28;20457;-21
2021/10/08 08:16:31;;;;;;;;;;;;;;;12.19;72.95;100778.34;5091746;28;19912;-21
2021/10/08 08:18:56;;;;;;;;;;;;;;;12.20;72.94;100785.34;5092051;28;19923;-21
2021/10/08 08:21:22;;;;;;;;;;;;;;;12.04;73.56;100795.44;5091734;28;19973;-21
2021/10/08 08:23:47;;;;;;;;;;;;;;;12.05;73.85;100799.78;5091808;28;19912;-21
2021/10/08 08:26:13;;;;;;;;;;;;;;;12.12;73.93;100794.41;5091480;28;19912;-21
2021/10/08 08:28:38;;;;;;;;;;;;;;;12.19;73.16;100792.50;5091494;28;20019;-20
2021/10/08 08:31:04;;;;;;;;;;;;;;;12.10;74.32;100791.13;5091414;28;20014;-20
2021/10/08 08:33:29;;;;;;;;;;;;;;;12.04;73.74;100798.13;5091596;28;20300;-21
2021/10/08 08:35:55;;;;;;;;;;;;;;;11.90;75.34;100801.88;5091327;28;19912;-21
2021/10/08 08:38:20;;;;;;;;;;;;;;;11.92;75.55;100805.16;5091452;28;20016;-21
2021/10/08 08:40:45;;;;;;;;;;;;;;;11.91;76.73;100798.19;5090981;28;20019;-20
2021/10/08 08:43:11;;;;;;;;;;;;;;;11.79;77.53;100789.09;5091507;28;19916;-21
2021/10/08 08:45:36;;;;;;;;;;;;;;;12.05;76.72;100805.13;5091255;28;19970;-21
2021/10/08 08:48:08;;;;;;;;;;;;;;;11.88;75.77;100797.75;5091242;28;19912;-21
2021/10/08 08:50:34;;;;;;;;;;;;;;;11.83;76.71;100796.53;5090944;28;19919;-21
2021/10/08 08:53:00;;;;;;;;;;;;;;;11.83;76.36;100803.72;5091112;28;20375;-20
2021/10/08 08:55:25;;;;;;;;;;;;;;;11.94;75.86;100813.78;5091180;28;19920;-21
2021/10/08 08:57:50;;;;;;;;;;;;;;;12.01;75.55;100803.06;5091013;28;20014;-20
2021/10/08 09:00:16;;;;;;;;;;;;;;;12.02;76.41;100810.88;5091225;28;19920;-21
2021/10/08 09:02:42;;;;;;;;;;;;;;;12.00;75.45;100807.59;5090782;28;19915;-21
2021/10/08 09:05:20;;;;;;;;;;;;;;;11.99;75.64;100808.66;5090873;28;20386;-21
2021/10/08 09:07:46;;;;;;;;;;;;;;;11.92;75.46;100815.84;5091033;28;19919;-21
2021/10/08 09:10:12;;;;;;;;;;;;;;;12.01;75.18;100819.09;5090756;28;19912;-21
2021/10/08 09:12:38;;;;;;;;;;;;;;;12.24;74.51;100807.94;5090418;28;19916;-20
2021/10/08 09:15:03;;;;;;;;;;;;;;;11.88;74.57;100808.44;5090543;28;20341;-21
2021/10/08 09:17:29;;;;;;;;;;;;;;;12.04;75.08;100808.81;5090815;28;19916;-20
2021/10/08 09:19:55;;;;;;;;;;;;;;;11.98;75.25;100809.66;5089894;28;20698;-20
2021/10/08 09:22:21;;;;;;;;;;;;;;;12.02;76.38;100813.56;5090589;28;20391;-20
2021/10/08 09:24:46;;;;;;;;;;;;;;;12.03;76.62;100806.34;5090385;28;19926;-21
2021/10/08 09:27:12;;;;;;;;;;;;;;;12.00;78.26;100809.47;5090415;28;20299;-21
2021/10/08 09:29:41;;;;;;;;;;;;;;;11.85;78.98;100810.50;5090513;28;19912;-21
2021/10/08 09:32:06;;;;;;;;;;;;;;;11.94;79.02;100813.78;5071965;28;19981;-21
2021/10/08 09:34:31;;;;;;;;;;;;;;;12.00;79.41;100798.78;5090363;28;19919;-21
2021/10/08 09:37:02;;;;;;;;;;;;;;;11.98;79.37;100787.47;5089450;28;19926;-21
2021/10/08 09:39:32;;;;;;;;;;;;;;;11.89;80.69;100789.56;5090408;28;19916;-21
2021/10/08 09:41:58;;;;;;;;;;;;;;;11.98;79.95;100784.78;5090396;28;19916;-21
2021/10/08 09:44:24;;;;;;;;;;;;;;;12.01;81.54;100782.53;5090221;28;20042;-21
2021/10/08 09:46:49;;;;;;;;;;;;;;;12.01;81.04;100781.69;5089930;28;20318;-21
2021/10/08 09:49:23;;;;;;;;;;;;;;;12.08;79.89;100782.50;5089996;28;19916;-21
2021/10/08 09:51:48;;;;;;;;;;;;;;;12.12;81.45;100794.41;5071760;28;20357;-21
2021/10/08 09:54:14;;;;;;;;;;;;;;;12.29;80.74;100793.94;5090056;28;19984;-21
2021/10/08 09:56:40;;;;;;;;;;;;;;;12.50;79.46;100800.81;5089745;28;19915;-21
2021/10/08 09:59:10;;;;;;;;;;;;;;;12.51;79.88;100810.50;5089886;28;19912;-21
2021/10/08 10:01:35;;;;;;;;;;;;;;;12.45;79.80;100823.69;5090013;28;19916;-27
2021/10/08 10:04:01;;;;;;;;;;;;;;;12.41;79.64;100809.09;5089929;28;20435;-21
2021/10/08 10:06:26;;;;;;;;;;;;;;;12.28;81.23;100817.19;5089841;28;20065;-21
2021/10/08 10:08:52;;;;;;;;;;;;;;;12.24;79.82;100814.13;5089438;28;19939;-21
2021/10/08 10:11:18;;;;;;;;;;;;;;;12.63;79.81;100822.19;5089735;28;20010;-21
2021/10/08 10:13:46;;;;;;;;;;;;;;;12.16;81.43;100833.06;5089592;28;19919;-21
2021/10/08 10:16:15;;;;;;;;;;;;;;;12.29;81.79;100837.53;5089499;28;20379;-22
2021/10/08 10:18:40;;;;;;;;;;;;;;;12.55;80.40;100828.59;5089260;28;19916;-22
2021/10/08 10:21:05;;;;;;;;;;;;;;;12.51;80.14;100840.75;5089400;28;19916;-22
2021/10/08 10:23:30;;;;;;;;;;;;;;;12.34;81.58;100845.75;5089249;28;19921;-23
2021/10/08 10:25:56;;;;;;;;;;;;;;;12.37;81.22;100833.81;5071378;28;19919;-22
2021/10/08 10:28:21;;;;;;;;;;;;;;;12.53;79.48;100837.88;5089497;28;19916;-22
2021/10/08 10:30:47;;;;;;;;;;;;;;;12.49;80.12;100837.47;5088953;28;19916;-22
2021/10/08 10:33:12;;;;;;;;;;;;;;;12.36;79.81;100832.16;5089349;28;20421;-22
2021/10/08 10:35:40;;;;;;;;;;;;;;;12.96;77.39;100831.88;5089339;28;19920;-23
2021/10/08 10:38:32;;;;;;;;;;;;;;;12.81;78.27;100824.97;5089276;28;19919;-22
2021/10/08 10:41:21;;;;;;;;;;;;;;;12.76;79.03;100819.41;5085194;28;19915;-22
2021/10/08 10:43:48;;;;;;;;;;;;;;;12.63;80.47;100811.47;5078391;28;19912;-22
2021/10/08 10:49:24;;;;;;;;;;;;;;;12.50;80.98;100796.28;5089352;28;19916;-22
2021/10/08 10:51:55;;;;;;;;;;;;;;;12.63;81.21;100796.22;5089265;28;19912;-22
2021/10/08 10:54:49;;;;;;;;;;;;;;;12.48;81.35;100784.16;5089021;28;19960;-21
2021/10/08 10:57:21;;;;;;;;;;;;;;;12.54;81.73;100784.13;5089517;28;19912;-21
2021/10/08 10:59:47;;;;;;;;;;;;;;;12.80;80.28;100774.31;5089204;28;19969;-22
2021/10/08 11:02:14;;;;;;;;;;;;;;;12.68;79.88;100768.00;5089140;28;19971;-22
2021/10/08 11:04:51;;;;;;;;;;;;;;;12.64;79.33;100775.63;5088848;28;19955;-22
2021/10/08 11:07:18;;;;;;;;;;;;;;;12.92;79.18;100777.13;5089088;28;19920;-22
2021/10/08 11:09:43;;;;;;;;;;;;;;;13.55;77.13;100776.22;5089222;28;19923;-22
2021/10/08 11:12:44;;;;;;;;;;;;;;;13.51;77.44;100765.13;5089147;28;19912;-22
2021/10/08 11:15:15;;;;;;;;;;;;;;;13.63;76.24;100763.34;5007026;28;19960;-22
2021/10/08 11:17:49;;;;;;;;;;;;;;;13.77;75.90;100752.47;5075064;28;20011;-22
2021/10/08 11:20:30;;;;;;;;;;;;;;;13.76;75.81;100751.66;5089033;28;19969;-21
2021/10/08 11:22:56;;;;;;;;;;;;;;;13.88;75.91;100749.06;5088664;28;19912;-21
2021/10/08 11:25:22;;;;;;;;;;;;;;;13.62;75.69;100748.28;5088876;28;20449;-22
2021/10/08 11:27:47;;;;;;;;;;;;;;;13.97;75.10;100741.53;5088886;28;19966;-22
2021/10/08 11:30:13;;;;;;;;;;;;;;;14.08;75.01;100732.75;5088891;28;19938;-22
2021/10/08 11:32:38;;;;;;;;;;;;;;;13.92;76.06;100722.63;5089064;28;19916;-21
2021/10/08 11:35:04;;;;;;;;;;;;;;;13.83;75.77;100716.72;5070968;28;20281;-21
2021/10/08 11:37:30;;;;;;;;;;;;;;;13.71;76.62;100738.13;5088825;28;19916;-22
2021/10/08 11:39:56;;;;;;;;;;;;;;;13.68;76.12;100735.06;5071027;28;19916;-21
2021/10/08 11:42:22;;;;;;;;;;;;;;;13.90;76.35;100733.56;5089394;28;20355;-22
2021/10/08 11:45:03;;;;;;;;;;;;;;;13.74;76.55;100747.56;5091993;28;19924;-21
2021/10/08 11:47:33;;;;;;;;;;;;;;;13.10;78.47;100752.25;5092622;28;19919;-21
2021/10/08 11:52:32;;;;;;;;;;;;;;;12.82;80.27;100773.06;5092443;28;19916;-21
2021/10/08 11:55:07;;;;;;;;;;;;;;;12.44;81.96;100789.97;5091896;28;20007;-21
2021/10/08 11:57:48;;;;;;;;;;;;;;;12.41;82.15;100806.41;5092253;28;19923;-21
2021/10/08 12:00:13;;;;;;;;;;;;;;;12.25;83.66;100821.09;5092110;28;19912;-21
2021/10/08 12:02:38;;;;;;;;;;;;;;;12.01;84.02;100819.09;5091777;28;19912;-21
2021/10/08 12:05:04;;;;;;;;;;;;;;;12.01;84.07;100821.78;5092026;28;20053;-21
2021/10/08 12:07:35;;;;;;;;;;;;;;;12.01;84.50;100830.66;5091975;28;19927;-21
2021/10/08 12:10:08;;;;;;;;;;;;;;;12.02;84.33;100831.47;5092187;28;20023;-21
2021/10/08 12:12:34;;;;;;;;;;;;;;;11.88;85.07;100825.28;5091852;28;19973;-22
2021/10/08 12:14:59;;;;;;;;;;;;;;;11.77;85.80;100818.72;5091941;28;19919;-22
2021/10/08 12:17:24;;;;;;;;;;;;;;;11.64;86.79;100806.19;5092155;28;19916;-22
2021/10/08 12:19:49;;;;;;;;;;;;;;;11.74;86.15;100802.28;5091910;28;19916;-22
2021/10/08 12:22:22;;;;;;;;;;;;;;;11.93;85.29;100801.47;5091695;28;19919;-22
2021/10/08 12:24:47;;;;;;;;;;;;;;;12.00;84.47;100802.25;5091467;28;20007;-22
2021/10/08 12:27:13;;;;;;;;;;;;;;;12.21;84.44;100801.16;5091688;28;20006;-22
2021/10/08 12:29:41;;;;;;;;;;;;;;;12.58;82.77;100803.25;5090397;28;19915;-22
2021/10/08 12:32:10;;;;;;;;;;;;;;;12.57;81.48;100805.13;5091742;28;19951;-22
2021/10/08 12:34:51;;;;;;;;;;;;;;;12.68;81.23;100813.50;5091333;28;19923;-22
2021/10/08 12:37:22;;;;;;;;;;;;;;;12.45;82.48;100814.84;5091490;28;19919;-21